createdAt,value
2023-07-31T00:01:58.989Z,68.23
2023-07-31T00:04:30.728Z,68.27
2023-07-31T00:07:05.278Z,68.36
2023-07-31T00:09:37.126Z,68.40
2023-07-31T00:12:10.249Z,68.53
2023-07-31T00:14:41.951Z,68.58
2023-07-31T00:17:13.646Z,68.49
2023-07-31T00:19:47.189Z,68.46
2023-07-31T00:22:18.893Z,68.53
2023-07-31T00:24:50.573Z,68.51
2023-07-31T00:27:22.289Z,68.52
2023-07-31T00:29:54.046Z,68.52
2023-07-31T00:32:25.755Z,68.56
2023-07-31T00:34:57.570Z,68.64
2023-07-31T00:37:29.279Z,68.66
2023-07-31T00:40:01.537Z,68.76
2023-07-31T00:42:33.489Z,68.77
2023-07-31T00:45:05.852Z,68.78
2023-07-31T00:47:37.616Z,68.91
2023-07-31T00:50:11.096Z,69.06
2023-07-31T00:52:42.796Z,69.19
2023-07-31T00:55:14.656Z,69.21
2023-07-31T00:57:47.180Z,69.34
2023-07-31T01:00:18.969Z,69.38
2023-07-31T01:02:51.477Z,69.51
2023-07-31T01:05:31.596Z,69.51
2023-07-31T01:08:13.301Z,69.54
2023-07-31T01:10:52.759Z,69.57
2023-07-31T01:13:25.474Z,69.63
2023-07-31T01:15:57.194Z,69.63
2023-07-31T01:18:28.965Z,69.64
2023-07-31T01:21:08.965Z,69.51
2023-07-31T01:24:02.742Z,69.52
2023-07-31T01:26:38.589Z,69.53
2023-07-31T01:29:19.518Z,69.51
2023-07-31T01:31:52.221Z,69.51
2023-07-31T01:34:25.424Z,69.34
2023-07-31T01:36:57.642Z,69.42
2023-07-31T01:39:29.359Z,69.40
2023-07-31T01:42:01.070Z,69.40
2023-07-31T01:44:33.872Z,69.20
2023-07-31T01:47:05.972Z,69.17
2023-07-31T01:49:37.692Z,69.16
2023-07-31T01:52:10.314Z,69.29
2023-07-31T01:54:42.019Z,69.29
2023-07-31T01:57:13.760Z,69.33
2023-07-31T01:59:45.485Z,69.39
2023-07-31T02:02:17.165Z,69.47
2023-07-31T02:04:49.241Z,69.44
2023-07-31T02:07:20.938Z,69.57
2023-07-31T02:09:52.613Z,69.63
2023-07-31T02:12:24.406Z,69.71
2023-07-31T02:14:56.083Z,69.75
2023-07-31T02:17:27.873Z,69.83
2023-07-31T02:19:59.558Z,69.89
2023-07-31T02:22:31.198Z,69.91
2023-07-31T02:25:02.882Z,69.90
2023-07-31T02:27:34.555Z,70.01
2023-07-31T02:30:06.836Z,69.95
2023-07-31T02:32:38.625Z,69.89
2023-07-31T02:35:11.181Z,69.93
2023-07-31T02:37:43.084Z,69.99
2023-07-31T02:40:15.738Z,70.07
2023-07-31T02:42:47.408Z,70.08
2023-07-31T02:45:19.239Z,70.10
2023-07-31T02:47:50.936Z,70.17
2023-07-31T02:50:22.830Z,70.16
2023-07-31T02:52:54.518Z,70.19
2023-07-31T02:55:26.286Z,70.15
2023-07-31T02:57:59.337Z,70.08
2023-07-31T03:00:31.148Z,70.07
2023-07-31T03:03:02.926Z,70.12
2023-07-31T03:05:34.812Z,70.13
2023-07-31T03:08:06.854Z,69.99
2023-07-31T03:10:38.540Z,69.94
2023-07-31T03:13:10.300Z,69.92
2023-07-31T03:15:43.966Z,69.94
2023-07-31T03:18:15.771Z,69.86
2023-07-31T03:20:47.637Z,69.91
2023-07-31T03:23:19.321Z,69.82
2023-07-31T03:26:01.944Z,69.77
2023-07-31T03:28:32.209Z,69.94
2023-07-31T03:31:04.133Z,69.94
2023-07-31T03:33:35.843Z,69.98
2023-07-31T03:36:08.687Z,69.90
2023-07-31T03:38:40.363Z,69.74
2023-07-31T03:41:12.573Z,69.85
2023-07-31T03:43:44.224Z,69.87
2023-07-31T03:46:15.946Z,69.77
2023-07-31T03:48:47.788Z,69.77
2023-07-31T03:51:19.824Z,69.79
2023-07-31T03:53:51.489Z,69.70
2023-07-31T03:56:24.767Z,69.72
2023-07-31T03:58:56.486Z,69.66
2023-07-31T04:01:28.374Z,69.62
2023-07-31T04:04:00.179Z,69.60
2023-07-31T04:06:31.869Z,69.54
2023-07-31T04:09:03.924Z,69.33
2023-07-31T04:11:35.634Z,69.32
2023-07-31T04:14:07.286Z,69.07
2023-07-31T04:16:39.182Z,69.09
2023-07-31T04:19:11.785Z,69.02
2023-07-31T04:21:43.471Z,68.99
2023-07-31T04:24:15.197Z,68.80
2023-07-31T04:26:46.877Z,68.65
2023-07-31T04:29:18.626Z,68.41
2023-07-31T04:31:51.371Z,68.34
2023-07-31T04:34:23.042Z,68.19
2023-07-31T04:36:54.744Z,68.07
2023-07-31T04:39:26.436Z,67.98
2023-07-31T04:41:58.150Z,67.90
2023-07-31T04:44:29.848Z,67.78
2023-07-31T04:47:03.035Z,67.50
2023-07-31T04:49:35.098Z,67.12
2023-07-31T04:52:07.983Z,67.01
2023-07-31T04:54:39.669Z,66.81
2023-07-31T04:57:11.916Z,66.87
2023-07-31T04:59:43.606Z,66.82
2023-07-31T05:02:15.450Z,66.58
2023-07-31T05:04:47.211Z,66.17
2023-07-31T05:07:19.047Z,65.82
2023-07-31T05:09:50.736Z,65.76
2023-07-31T05:12:22.441Z,65.61
2023-07-31T05:14:54.059Z,65.30
2023-07-31T05:17:25.766Z,65.13
2023-07-31T05:19:57.451Z,64.98
2023-07-31T05:22:29.113Z,64.66
2023-07-31T05:25:00.935Z,64.79
2023-07-31T05:27:33.441Z,64.80
2023-07-31T05:30:05.437Z,64.74
2023-07-31T05:32:37.267Z,64.36
2023-07-31T05:35:10.171Z,64.48
2023-07-31T05:37:41.881Z,64.22
2023-07-31T05:40:14.364Z,63.91
2023-07-31T05:42:46.146Z,64.01
2023-07-31T05:45:17.935Z,63.76
2023-07-31T05:47:49.700Z,63.62
2023-07-31T05:50:21.497Z,62.76
2023-07-31T05:52:53.228Z,62.27
2023-07-31T05:55:25.070Z,62.01
2023-07-31T05:57:58.074Z,61.55
2023-07-31T06:00:31.397Z,61.58
2023-07-31T06:03:03.200Z,61.10
2023-07-31T06:05:35.152Z,59.89
2023-07-31T06:08:07.179Z,59.58
2023-07-31T06:10:38.928Z,59.45
2023-07-31T06:13:10.709Z,60.02
2023-07-31T06:15:42.467Z,59.25
2023-07-31T06:18:14.208Z,57.55
2023-07-31T06:20:45.963Z,57.24
2023-07-31T06:23:19.753Z,55.80
2023-07-31T06:25:51.579Z,53.99
2023-07-31T06:28:23.575Z,52.36
2023-07-31T06:30:55.330Z,51.04
2023-07-31T06:33:27.355Z,50.31
2023-07-31T06:35:59.080Z,49.74
2023-07-31T06:38:30.991Z,49.30
2023-07-31T06:41:02.886Z,48.18
2023-07-31T06:43:34.649Z,46.88
2023-07-31T06:46:09.987Z,44.89
2023-07-31T06:48:41.748Z,42.97
2023-07-31T06:51:13.482Z,41.46
2023-07-31T06:53:46.318Z,41.09
2023-07-31T06:56:18.164Z,40.40
2023-07-31T06:58:49.804Z,39.77
2023-07-31T07:01:21.610Z,38.63
2023-07-31T07:03:53.408Z,37.09
2023-07-31T07:06:25.696Z,35.71
2023-07-31T07:08:57.477Z,34.43
2023-07-31T07:11:29.344Z,33.46
2023-07-31T07:14:01.640Z,31.84
2023-07-31T07:16:33.406Z,31.49
2023-07-31T07:19:05.577Z,31.37
2023-07-31T07:21:37.415Z,32.59
2023-07-31T07:24:09.477Z,33.19
2023-07-31T07:26:41.515Z,33.87
2023-07-31T07:29:13.518Z,34.56
2023-07-31T07:31:45.297Z,35.42
2023-07-31T07:34:16.992Z,36.50
2023-07-31T07:36:48.720Z,36.94
2023-07-31T07:39:20.407Z,37.31
2023-07-31T07:41:52.150Z,37.94
2023-07-31T07:44:23.906Z,38.54
2023-07-31T07:46:55.574Z,39.23
2023-07-31T07:49:27.390Z,39.45
2023-07-31T07:51:59.093Z,39.88
2023-07-31T07:54:30.818Z,40.38
2023-07-31T07:57:02.846Z,40.35
2023-07-31T07:59:34.589Z,40.88
2023-07-31T08:02:06.591Z,41.37
2023-07-31T08:04:38.228Z,41.40
2023-07-31T08:07:10.058Z,41.41
2023-07-31T08:09:42.187Z,41.87
2023-07-31T08:12:13.860Z,41.97
2023-07-31T08:14:45.572Z,41.78
2023-07-31T08:17:17.300Z,41.90
2023-07-31T08:19:49.155Z,42.04
2023-07-31T08:22:20.910Z,42.27
2023-07-31T08:24:52.687Z,42.31
2023-07-31T08:27:24.578Z,42.55
2023-07-31T08:29:56.894Z,42.50
2023-07-31T08:32:28.692Z,42.41
2023-07-31T08:35:00.424Z,42.87
2023-07-31T08:37:32.168Z,42.57
2023-07-31T08:40:08.011Z,42.61
2023-07-31T08:42:47.423Z,42.21
2023-07-31T08:45:20.638Z,42.22
2023-07-31T08:47:54.419Z,42.10
2023-07-31T08:50:26.276Z,42.04
2023-07-31T08:52:59.053Z,42.23
2023-07-31T08:55:33.231Z,42.00
2023-07-31T08:58:06.863Z,42.02
2023-07-31T09:00:40.142Z,42.28
2023-07-31T09:03:15.581Z,42.61
2023-07-31T09:05:48.872Z,42.74
2023-07-31T09:08:22.881Z,42.86
2023-07-31T09:10:55.887Z,42.96
2023-07-31T09:13:27.729Z,42.31
2023-07-31T09:15:59.607Z,42.04
2023-07-31T09:18:31.374Z,42.63
2023-07-31T09:21:08.150Z,42.40
2023-07-31T09:23:49.024Z,42.51
2023-07-31T09:26:34.864Z,42.34
2023-07-31T09:29:09.367Z,41.88
2023-07-31T09:31:46.324Z,41.71
2023-07-31T09:34:18.545Z,41.41
2023-07-31T09:36:54.596Z,41.27
2023-07-31T09:39:26.321Z,41.29
2023-07-31T09:41:59.383Z,41.45
2023-07-31T09:44:43.170Z,41.32
2023-07-31T09:47:26.685Z,40.73
2023-07-31T09:49:58.846Z,40.55
2023-07-31T09:52:30.939Z,39.44
2023-07-31T09:55:02.753Z,39.25
2023-07-31T09:57:35.311Z,39.19
2023-07-31T10:00:10.406Z,39.74
2023-07-31T10:02:43.304Z,39.74
2023-07-31T10:05:17.056Z,39.62
2023-07-31T10:07:53.673Z,39.60
2023-07-31T10:10:27.181Z,39.09
2023-07-31T10:13:01.143Z,39.32
2023-07-31T10:15:34.009Z,38.94
2023-07-31T10:18:07.895Z,39.11
2023-07-31T10:20:40.302Z,39.23
2023-07-31T10:23:12.793Z,39.37
2023-07-31T10:25:46.140Z,39.31
2023-07-31T10:28:18.023Z,39.28
2023-07-31T10:30:51.931Z,39.36
2023-07-31T10:33:23.942Z,39.27
2023-07-31T10:36:17.859Z,39.13
2023-07-31T10:38:52.823Z,38.91
2023-07-31T10:41:32.276Z,39.29
2023-07-31T10:44:04.770Z,38.93
2023-07-31T10:46:36.581Z,39.05
2023-07-31T10:49:08.303Z,38.81
2023-07-31T10:51:42.768Z,38.26
2023-07-31T10:54:20.312Z,38.43
2023-07-31T10:56:54.178Z,38.49
2023-07-31T10:59:36.619Z,38.63
2023-07-31T11:02:25.686Z,38.33
2023-07-31T11:05:13.730Z,38.17
2023-07-31T11:07:52.084Z,37.86
2023-07-31T11:10:26.816Z,37.91
2023-07-31T11:12:58.582Z,37.88
2023-07-31T11:15:31.748Z,37.41
2023-07-31T11:18:06.437Z,37.12
2023-07-31T11:20:39.895Z,37.14
2023-07-31T11:23:13.448Z,36.98
2023-07-31T11:25:45.687Z,37.24
2023-07-31T11:28:18.559Z,37.49
2023-07-31T11:30:50.542Z,37.38
2023-07-31T11:33:22.320Z,36.85
2023-07-31T11:35:54.436Z,37.06
2023-07-31T11:38:27.764Z,37.07
2023-07-31T11:41:03.438Z,36.74
2023-07-31T11:43:37.656Z,36.63
2023-07-31T11:46:09.418Z,36.36
2023-07-31T11:48:41.871Z,36.46
2023-07-31T11:51:16.376Z,36.15
2023-07-31T11:53:52.481Z,36.25
2023-07-31T11:56:23.276Z,35.51
2023-07-31T11:58:57.326Z,35.17
2023-07-31T12:01:30.200Z,35.42
2023-07-31T12:04:02.253Z,35.19
2023-07-31T12:06:40.234Z,35.33
2023-07-31T12:09:12.227Z,35.08
2023-07-31T12:11:50.655Z,34.94
2023-07-31T12:14:29.681Z,35.41
2023-07-31T12:17:03.475Z,35.23
2023-07-31T12:19:36.226Z,35.21
2023-07-31T12:22:15.285Z,35.43
2023-07-31T12:24:47.742Z,35.64
2023-07-31T12:27:19.779Z,35.37
2023-07-31T12:29:51.460Z,35.34
2023-07-31T12:32:25.155Z,35.53
2023-07-31T12:34:56.925Z,35.41
2023-07-31T12:37:28.943Z,35.51
2023-07-31T12:40:08.604Z,35.84
2023-07-31T12:42:40.711Z,36.01
2023-07-31T12:45:13.037Z,36.26
2023-07-31T12:47:44.761Z,35.98
2023-07-31T12:50:16.521Z,36.15
2023-07-31T12:52:48.266Z,35.79
2023-07-31T12:55:20.417Z,36.02
2023-07-31T12:57:52.556Z,36.33
2023-07-31T13:00:27.359Z,36.16
2023-07-31T13:02:59.430Z,36.26
2023-07-31T13:05:31.556Z,36.52
2023-07-31T13:08:03.226Z,36.62
2023-07-31T13:10:35.007Z,36.70
2023-07-31T13:13:06.703Z,36.73
2023-07-31T13:15:38.491Z,36.42
2023-07-31T13:18:10.221Z,36.59
2023-07-31T13:20:41.907Z,36.84
2023-07-31T13:23:13.658Z,36.88
2023-07-31T13:25:45.478Z,37.11
2023-07-31T13:28:17.349Z,36.86
2023-07-31T13:30:49.022Z,36.77
2023-07-31T13:33:35.555Z,36.93
2023-07-31T13:36:08.533Z,36.62
2023-07-31T13:38:40.183Z,36.75
2023-07-31T13:41:11.858Z,36.28
2023-07-31T13:43:43.566Z,36.73
2023-07-31T13:46:15.325Z,36.73
2023-07-31T13:48:47.077Z,36.59
2023-07-31T13:51:18.788Z,36.37
2023-07-31T13:53:50.476Z,36.32
2023-07-31T13:56:22.142Z,36.65
2023-07-31T13:58:54.217Z,36.64
2023-07-31T14:01:26.335Z,36.38
2023-07-31T14:03:58.151Z,36.98
2023-07-31T14:06:29.950Z,37.31
2023-07-31T14:09:01.617Z,36.87
2023-07-31T14:11:34.450Z,36.82
2023-07-31T14:14:06.727Z,37.01
2023-07-31T14:16:38.954Z,36.84
2023-07-31T14:19:11.285Z,36.94
2023-07-31T14:21:43.686Z,36.74
2023-07-31T14:24:17.379Z,37.03
2023-07-31T14:26:49.347Z,37.12
2023-07-31T14:29:21.071Z,37.29
2023-07-31T14:31:52.836Z,37.27
2023-07-31T14:34:24.556Z,37.28
2023-07-31T14:36:56.331Z,36.97
2023-07-31T14:39:28.005Z,37.26
2023-07-31T14:44:39.211Z,37.19
2023-07-31T14:47:11.122Z,37.13
2023-07-31T14:49:42.837Z,37.32
2023-07-31T14:52:14.601Z,37.47
2023-07-31T14:54:47.617Z,37.38
2023-07-31T14:57:19.446Z,37.62
2023-07-31T14:59:51.095Z,37.73
2023-07-31T15:02:23.431Z,38.02
2023-07-31T15:04:55.128Z,38.22
2023-07-31T15:07:26.919Z,38.29
2023-07-31T15:09:58.616Z,38.36
2023-07-31T15:12:30.964Z,38.43
2023-07-31T15:15:02.729Z,38.51
2023-07-31T15:17:34.542Z,38.86
2023-07-31T15:20:07.682Z,38.99
2023-07-31T15:22:39.415Z,38.94
2023-07-31T15:25:12.305Z,39.05
2023-07-31T15:27:43.979Z,38.94
2023-07-31T15:30:15.836Z,38.82
2023-07-31T15:32:49.760Z,38.94
2023-07-31T15:35:22.783Z,38.88
2023-07-31T15:37:54.640Z,38.66
2023-07-31T15:40:26.304Z,38.59
2023-07-31T15:42:58.049Z,38.57
2023-07-31T15:45:29.771Z,38.57
2023-07-31T15:48:01.493Z,38.67
2023-07-31T15:50:33.254Z,38.52
2023-07-31T15:53:05.010Z,38.81
2023-07-31T15:55:36.835Z,38.92
2023-07-31T15:58:08.581Z,39.03
2023-07-31T16:00:40.335Z,39.02
2023-07-31T16:03:34.750Z,39.31
2023-07-31T16:06:06.598Z,39.21
2023-07-31T16:08:42.064Z,39.53
2023-07-31T16:11:13.962Z,39.58
2023-07-31T16:13:45.713Z,39.50
2023-07-31T16:16:17.519Z,39.53
2023-07-31T16:18:49.327Z,39.81
2023-07-31T16:21:21.187Z,40.15
2023-07-31T16:23:52.935Z,40.20
2023-07-31T16:26:24.641Z,40.19
2023-07-31T16:28:56.324Z,40.16
2023-07-31T16:31:31.161Z,40.28
2023-07-31T16:34:06.674Z,40.31
2023-07-31T16:36:38.619Z,40.58
2023-07-31T16:39:10.504Z,40.63
2023-07-31T16:41:42.507Z,40.64
2023-07-31T16:44:17.425Z,40.66
2023-07-31T16:46:49.397Z,40.72
2023-07-31T16:49:21.161Z,40.83
2023-07-31T16:51:53.499Z,40.80
2023-07-31T16:54:25.191Z,41.12
2023-07-31T16:57:00.135Z,41.38
2023-07-31T16:59:32.593Z,41.55
2023-07-31T17:02:04.529Z,41.35
2023-07-31T17:04:36.681Z,41.71
2023-07-31T17:07:08.579Z,42.15
2023-07-31T17:09:40.360Z,42.17
2023-07-31T17:12:12.441Z,42.08
2023-07-31T17:14:44.242Z,42.17
2023-07-31T17:17:15.912Z,42.23
2023-07-31T17:19:47.619Z,41.93
2023-07-31T17:22:19.327Z,41.97
2023-07-31T17:24:51.009Z,41.98
2023-07-31T17:27:24.506Z,42.34
2023-07-31T17:29:57.424Z,42.35
2023-07-31T17:32:29.144Z,42.36
2023-07-31T17:35:00.850Z,42.46
2023-07-31T17:37:32.548Z,42.58
2023-07-31T17:40:04.997Z,42.57
2023-07-31T17:42:36.743Z,42.63
2023-07-31T17:45:10.304Z,42.83
2023-07-31T17:47:41.973Z,43.17
2023-07-31T17:50:13.994Z,43.39
2023-07-31T17:52:45.678Z,43.88
2023-07-31T17:55:17.528Z,43.90
2023-07-31T17:57:49.212Z,44.04
2023-07-31T18:00:23.574Z,44.22
2023-07-31T18:02:55.408Z,44.41
2023-07-31T18:05:27.210Z,44.67
2023-07-31T18:07:58.952Z,44.75
2023-07-31T18:10:30.674Z,44.97
2023-07-31T18:13:02.544Z,45.26
2023-07-31T18:15:34.289Z,45.54
2023-07-31T18:18:06.152Z,45.48
2023-07-31T18:20:40.368Z,45.67
2023-07-31T18:23:12.107Z,45.83
2023-07-31T18:25:44.823Z,46.08
2023-07-31T18:28:16.605Z,46.37
2023-07-31T18:30:48.374Z,46.47
2023-07-31T18:33:20.069Z,46.42
2023-07-31T18:35:51.805Z,46.54
2023-07-31T18:38:23.501Z,46.69
2023-07-31T18:40:55.169Z,46.96
2023-07-31T18:43:26.938Z,47.35
2023-07-31T18:45:58.651Z,47.59
2023-07-31T18:48:31.725Z,48.01
2023-07-31T18:51:03.693Z,48.16
2023-07-31T18:53:35.367Z,48.22
2023-07-31T18:56:07.473Z,48.54
2023-07-31T18:58:39.211Z,48.93
2023-07-31T19:01:10.948Z,49.04
2023-07-31T19:03:42.668Z,49.17
2023-07-31T19:06:14.438Z,49.50
2023-07-31T19:08:46.417Z,49.64
2023-07-31T19:11:31.256Z,49.84
2023-07-31T19:14:04.709Z,50.22
2023-07-31T19:16:36.524Z,50.36
2023-07-31T19:19:08.320Z,50.51
2023-07-31T19:21:40.047Z,50.65
2023-07-31T19:24:11.763Z,50.89
2023-07-31T19:26:44.638Z,51.16
2023-07-31T19:29:16.345Z,51.53
2023-07-31T19:31:48.058Z,51.73
2023-07-31T19:34:19.773Z,51.91
2023-07-31T19:36:51.477Z,52.18
2023-07-31T19:39:23.174Z,52.50
2023-07-31T19:41:54.837Z,52.63
2023-07-31T19:44:26.633Z,52.91
2023-07-31T19:46:58.291Z,53.16
2023-07-31T19:49:30.717Z,53.46
2023-07-31T19:52:02.369Z,53.71
2023-07-31T19:54:34.120Z,53.93
2023-07-31T19:57:06.498Z,54.06
2023-07-31T19:59:38.199Z,54.35
2023-07-31T20:02:10.180Z,54.61
2023-07-31T20:04:41.936Z,54.75
2023-07-31T20:07:13.688Z,55.00
2023-07-31T20:09:45.453Z,55.19
2023-07-31T20:12:17.223Z,55.34
2023-07-31T20:14:49.986Z,55.51
2023-07-31T20:17:21.773Z,55.76
2023-07-31T20:19:53.448Z,56.02
2023-07-31T20:22:25.355Z,55.85
2023-07-31T20:24:57.104Z,56.05
2023-07-31T20:27:28.764Z,56.29
2023-07-31T20:30:00.729Z,56.31
2023-07-31T20:32:32.634Z,56.44
2023-07-31T20:35:04.769Z,56.57
2023-07-31T20:37:36.483Z,56.78
2023-07-31T20:40:11.251Z,56.81
2023-07-31T20:42:42.953Z,57.07
2023-07-31T20:45:15.502Z,57.21
2023-07-31T20:47:47.503Z,57.36
2023-07-31T20:50:19.436Z,57.55
2023-07-31T20:52:51.229Z,57.76
2023-07-31T20:55:22.948Z,58.13
2023-07-31T20:57:55.916Z,58.32
2023-07-31T21:00:27.845Z,58.54
2023-07-31T21:02:59.723Z,58.70
2023-07-31T21:05:31.551Z,58.76
2023-07-31T21:08:04.052Z,59.00
2023-07-31T21:10:39.725Z,59.16
2023-07-31T21:13:11.479Z,59.06
2023-07-31T21:15:48.201Z,59.01
2023-07-31T21:18:20.005Z,59.29
2023-07-31T21:20:51.814Z,59.30
2023-07-31T21:23:23.505Z,59.27
2023-07-31T21:25:55.470Z,59.38
2023-07-31T21:28:27.239Z,59.34
2023-07-31T21:30:58.947Z,59.31
2023-07-31T21:33:32.946Z,59.62
2023-07-31T21:36:05.187Z,59.76
2023-07-31T21:38:36.977Z,59.63
2023-07-31T21:41:08.648Z,59.77
2023-07-31T21:43:40.314Z,59.78
2023-07-31T21:46:12.057Z,59.97
2023-07-31T21:48:43.777Z,60.04
2023-07-31T21:51:15.472Z,60.09
2023-07-31T21:53:47.226Z,60.02
2023-07-31T21:56:19.019Z,60.00
2023-07-31T21:58:50.672Z,60.14
2023-07-31T22:01:22.507Z,60.05
2023-07-31T22:03:54.249Z,60.22
2023-07-31T22:06:26.023Z,60.22
2023-07-31T22:08:57.732Z,60.28
2023-07-31T22:11:29.484Z,60.29
2023-07-31T22:14:01.397Z,60.31
2023-07-31T22:16:34.616Z,60.44
2023-07-31T22:19:06.439Z,60.48
2023-07-31T22:21:38.559Z,60.51
2023-07-31T22:24:10.226Z,60.64
2023-07-31T22:26:42.172Z,60.63
2023-07-31T22:29:14.760Z,60.67
2023-07-31T22:31:46.465Z,60.46
2023-07-31T22:34:18.215Z,60.53
2023-07-31T22:36:49.952Z,60.54
2023-07-31T22:39:21.699Z,60.59
2023-07-31T22:41:53.420Z,60.66
2023-07-31T22:44:25.296Z,60.64
2023-07-31T22:46:56.987Z,60.72
2023-07-31T22:49:28.677Z,60.71
2023-07-31T22:52:00.535Z,60.70
2023-07-31T22:54:32.269Z,60.83
2023-07-31T22:57:04.128Z,60.75
2023-07-31T22:59:36.035Z,60.62
2023-07-31T23:02:09.679Z,60.78
2023-07-31T23:04:42.189Z,60.85
2023-07-31T23:07:13.906Z,60.83
2023-07-31T23:09:45.541Z,60.86
2023-07-31T23:12:17.208Z,60.72
2023-07-31T23:14:48.987Z,60.74
2023-07-31T23:17:20.687Z,60.68
2023-07-31T23:19:52.380Z,60.80
2023-07-31T23:22:24.074Z,60.80
2023-07-31T23:24:56.903Z,60.76
2023-07-31T23:27:28.650Z,60.73
2023-07-31T23:30:00.634Z,60.88
2023-07-31T23:32:32.688Z,60.66
2023-07-31T23:35:04.747Z,60.69
2023-07-31T23:37:36.419Z,60.38
2023-07-31T23:40:09.970Z,60.33
2023-07-31T23:42:41.910Z,60.26
2023-07-31T23:45:16.262Z,60.34
2023-07-31T23:47:48.010Z,60.44
2023-07-31T23:50:19.929Z,60.49
2023-07-31T23:52:51.755Z,60.42
2023-07-31T23:55:23.626Z,60.55
2023-07-31T23:57:55.845Z,60.50
